Latest Weather Observations for St George

IDQ60801

Issued at 9:02 am EST Wednesday 18 January 2017 (issued every 30 minutes, with the page automatically refreshed every 10 minutes)

About weather observations | Map of weather stations | Latest weather observations for QLD | Other Formats
Station Details ID: 043109 Name: ST GEORGE AIRPORT Lat: -28.05 Lon: 148.59 Height: 198.5 m
Data from the previous 72 hours. | See also: Recent months at St George
Date/Time
EST
Temp
°C
App
Temp
°C
Dew
Point
°C
Rel
Hum
%
Delta-T
°C
Wind Press
QNH
hPa
Press
MSL
hPa
Rain since
9am
mm
Dir  Spd
km/h
Gust
km/h
Spd
kts
Gust
kts
18/09:00am 34.2 31.7 14.1 29 12.4 NW 20 32 11 17 1013.6 1012.3 0.0
18/08:30am 33.0 31.4 15.0 33 11.2 NNW 17 24 9 13 1013.9 - 0.0
18/08:00am 31.0 29.6 14.6 37 10.1 NNW 15 20 8 11 1014.3 - 0.0
18/07:30am 29.6 28.5 14.2 39 9.4 N 13 19 7 10 1014.4 - 0.0
18/07:00am 28.5 27.0 14.3 41 8.6 N 15 20 8 11 1014.1 - 0.0
18/06:30am 27.3 26.2 14.3 45 7.8 NNE 13 17 7 9 1013.8 - 0.0
18/06:00am 25.6 25.3 14.4 50 6.7 NNE 9 13 5 7 1013.3 1012.0 0.0
18/05:30am 24.8 25.0 14.3 52 6.3 N 6 7 3 4 1012.7 - 0.0
18/05:00am 25.7 25.9 14.2 49 6.9 NNW 6 9 3 5 1012.2 - 0.0
18/04:30am 26.0 26.1 13.8 47 7.3 N 6 7 3 4 1011.9 - 0.0
18/04:00am 26.9 26.0 13.6 44 7.9 N 11 13 6 7 1011.4 - 0.0
18/03:30am 27.5 26.1 13.4 41 8.4 N 13 19 7 10 1010.8 - 0.0
18/03:00am 27.8 26.3 13.0 40 8.8 N 13 20 7 11 1010.9 1009.6 0.0
18/02:30am 28.0 26.5 13.1 39 8.8 N 13 17 7 9 1011.2 - 0.0
18/02:00am 28.4 27.3 13.1 39 9.1 NNW 11 15 6 8 1011.5 - 0.0
18/01:30am 28.5 27.7 12.8 38 9.3 N 9 11 5 6 1011.7 - 0.0
18/01:00am 28.9 28.1 12.8 37 9.6 N 9 13 5 7 1011.7 - 0.0
18/12:30am 29.4 28.2 12.8 36 9.9 N 11 13 6 7 1012.0 - 0.0
18/12:00am 30.2 28.5 12.6 34 10.5 N 13 19 7 10 1012.3 1010.9 0.0
 
Date/Time
EST
Temp
°C
App
Temp
°C
Dew
Point
°C
Rel
Hum
%
Delta-T
°C
Wind Press
QNH
hPa
Press
MSL
hPa
Rain since
9am
mm
Dir  Spd
km/h
Gust
km/h
Spd
kts
Gust
kts
17/11:30pm 30.0 28.7 12.4 34 10.4 N 11 13 6 7 1012.4 - 0.0
17/11:00pm 30.7 29.4 12.6 33 10.8 N 11 13 6 7 1012.4 - 0.0
17/10:30pm 30.9 30.1 12.8 33 10.8 N 9 13 5 7 1012.6 - 0.0
17/10:00pm 31.4 30.5 12.7 32 11.2 NNE 9 11 5 6 1012.8 - 0.0
17/09:30pm 31.9 31.4 12.7 31 11.5 ENE 7 9 4 5 1012.7 - 0.0
17/09:00pm 33.2 32.0 12.8 29 12.3 N 11 17 6 9 1012.7 1011.4 0.0
17/08:30pm 33.7 32.1 12.7 28 12.7 N 13 19 7 10 1012.5 - 0.0
17/08:00pm 34.1 32.8 12.4 26 13.1 N 11 13 6 7 1012.3 - 0.0
17/07:30pm 34.8 33.3 11.9 25 13.7 N 11 15 6 8 1012.0 - 0.0
17/07:00pm 35.6 33.5 11.3 23 14.5 NNW 13 19 7 10 1011.7 - 0.0
17/06:30pm 36.4 34.3 11.3 22 15.0 NNW 13 19 7 10 1011.5 - 0.0
17/06:00pm 36.9 34.2 11.7 22 15.2 NNW 17 20 9 11 1011.4 1010.0 0.0
17/05:30pm 37.2 34.9 11.9 22 15.3 NNW 15 22 8 12 1011.4 - 0.0
17/05:00pm 37.5 34.6 12.2 22 15.4 N 19 28 10 15 1011.4 - 0.0
17/04:30pm 37.6 35.9 12.3 22 15.4 NNW 13 20 7 11 1011.4 - 0.0
17/04:00pm 37.1 35.8 12.5 23 15.0 NNW 11 20 6 11 1011.8 - 0.0
17/03:30pm 37.1 35.0 12.5 23 15.0 NNW 15 24 8 13 1012.1 - 0.0
17/03:00pm 37.0 35.1 13.1 24 14.7 NNE 15 24 8 13 1012.4 1011.0 0.0
17/02:30pm 36.2 33.9 13.0 24 14.2 N 17 26 9 14 1012.7 - 0.0
17/02:00pm 37.0 34.9 13.7 25 14.4 N 17 24 9 13 1013.1 - 0.0
17/01:30pm 35.6 32.8 13.1 25 13.8 N 20 35 11 19 1013.6 - 0.0
17/01:00pm 35.8 34.4 14.4 27 13.3 N 15 28 8 15 1013.9 - 0.0
17/12:30pm 34.8 32.5 14.1 28 12.8 N 19 28 10 15 1014.5 - 0.0
17/12:00pm 34.6 33.0 15.0 31 12.3 NNW 17 26 9 14 1014.9 1013.6 0.0
17/11:30am 33.4 31.1 14.0 31 11.9 NE 19 28 10 15 1015.4 - 0.0
17/11:00am 33.2 31.5 14.8 33 11.4 N 17 26 9 14 1015.8 - 0.0
17/10:30am 32.8 31.1 15.8 36 10.7 N 19 24 10 13 1016.1 - 0.0
17/10:00am 31.2 29.0 16.0 40 9.5 N 22 33 12 18 1016.5 - 0.0
17/09:30am 31.0 29.6 17.0 43 8.9 N 20 26 11 14 1016.7 - 0.0
17/09:00am 30.1 27.9 16.9 45 8.4 N 24 35 13 19 1016.8 1015.4 0.8
17/08:30am 29.2 28.0 17.4 49 7.5 N 20 32 11 17 1016.8 - 0.8
17/08:00am 28.6 26.5 17.2 50 7.2 N 24 35 13 19 1016.7 - 0.8
17/07:30am 27.7 25.7 17.5 53 6.5 N 24 35 13 19 1016.6 - 0.8
17/07:00am 27.6 26.7 18.3 57 6.0 N 20 32 11 17 1016.3 - 0.8
17/06:30am 27.2 27.5 18.8 60 5.4 N 15 19 8 10 1016.0 - 0.8
17/06:00am 26.6 27.4 19.0 63 4.9 N 13 19 7 10 1015.5 1014.2 0.8
17/05:30am 26.4 26.7 18.8 63 4.9 N 15 19 8 10 1014.9 - 0.8
17/05:00am 26.7 26.5 18.6 61 5.2 N 17 24 9 13 1014.5 - 0.8
17/04:30am 27.2 26.4 18.5 59 5.6 N 20 30 11 16 1014.2 - 0.8
17/04:00am 27.6 26.6 18.0 55 6.1 N 20 30 11 16 1013.8 - 0.8
17/03:30am 27.9 26.8 17.4 52 6.7 N 19 24 10 13 1013.5 - 0.8
17/03:00am 28.2 26.8 17.1 51 7.0 N 20 32 11 17 1013.1 1011.8 0.8
17/02:30am 28.1 28.5 18.2 55 6.4 NNE 13 19 7 10 1013.0 - 0.8
17/02:00am 28.2 28.9 18.0 54 6.5 NNE 11 15 6 8 1013.0 - 0.8
17/01:30am 28.6 29.0 16.2 47 7.7 NNE 9 13 5 7 1012.8 - 0.8
17/01:00am 29.4 29.1 15.5 43 8.6 N 11 19 6 10 1012.7 - 0.8
17/12:30am 30.4 28.8 14.9 39 9.6 N 17 24 9 13 1012.7 - 0.8
17/12:00am 30.9 28.7 14.5 37 10.1 NNE 19 28 10 15 1012.6 1011.2 0.8
 
Date/Time
EST
Temp
°C
App
Temp
°C
Dew
Point
°C
Rel
Hum
%
Delta-T
°C
Wind Press
QNH
hPa
Press
MSL
hPa
Rain since
9am
mm
Dir  Spd
km/h
Gust
km/h
Spd
kts
Gust
kts
16/11:30pm 31.1 29.4 14.7 37 10.1 NNE 17 24 9 13 1012.7 - 0.8
16/11:00pm 31.1 30.4 15.5 39 9.7 NNE 13 20 7 11 1012.6 - 0.8
16/10:30pm 31.6 30.9 16.3 39 9.7 NNE 15 19 8 10 1012.5 - 0.8
16/10:00pm 32.1 31.3 16.0 38 10.1 NNE 15 20 8 11 1012.4 - 0.8
16/09:30pm 32.4 32.2 16.7 39 10.0 NNE 13 22 7 12 1012.3 - 0.8
16/09:00pm 32.7 32.8 16.5 37 10.3 NE 11 20 6 11 1012.2 1010.8 0.8
16/08:30pm 33.0 32.7 16.4 37 10.6 NE 13 19 7 10 1011.8 - 0.8
16/08:00pm 33.4 33.4 17.1 37 10.5 NE 13 20 7 11 1011.4 - 0.8
16/07:30pm 31.5 34.3 20.8 53 7.2 ENE 7 13 4 7 1011.4 - 0.8
16/07:00pm 31.7 34.9 21.2 53 7.1 WNW 6 7 3 4 1011.0 - 0.8
16/06:30pm 31.1 32.8 21.0 55 6.8 WNW 13 17 7 9 1010.8 - 0.8
16/06:00pm 30.2 30.3 20.4 55 6.5 NW 20 33 11 18 1010.6 1009.3 0.8
16/05:30pm 31.6 33.1 21.2 54 7.0 NW 15 44 8 24 1010.4 - 0.8
16/05:19pm 31.7 30.8 19.0 47 8.3 ENE 22 35 12 19 1010.3 - 0.2
16/05:00pm 37.1 35.0 16.1 29 13.5 ENE 22 39 12 21 1009.7 - 0.0
16/04:00pm 35.7 34.1 14.9 29 13.1 N 17 24 9 13 1009.7 - 0.0
16/03:30pm 36.5 37.2 16.1 29 13.1 ENE 7 28 4 15 1010.0 - 0.0
16/03:00pm 35.8 34.6 16.0 30 12.6 NNE 17 26 9 14 1010.1 1008.8 0.0
16/02:30pm 35.8 34.0 16.0 30 12.6 NNE 20 35 11 19 1010.4 - 0.0
16/02:00pm 35.3 33.5 15.6 31 12.5 ENE 19 32 10 17 1010.7 - 0.0
16/01:30pm 34.9 33.7 16.2 32 11.9 N 17 28 9 15 1011.2 - 0.0
16/01:00pm 34.1 32.3 16.0 34 11.5 N 20 35 11 19 1011.5 - 0.0
16/12:30pm 35.1 34.2 17.8 36 11.3 NNE 19 39 10 21 1011.7 - 0.0
16/12:00pm 34.3 32.6 17.1 36 11.1 N 22 35 12 19 1012.0 1010.6 0.0
16/11:30am 33.3 32.1 17.5 39 10.2 NE 20 32 11 17 1012.4 - 0.0
16/11:00am 32.6 31.4 17.6 40 9.7 NNE 20 30 11 16 1012.6 - 0.0
16/10:30am 32.3 31.1 18.5 44 9.0 NE 22 35 12 19 1012.8 - 0.0
16/10:00am 31.4 30.0 18.0 44 8.7 NNE 22 28 12 15 1012.9 - 0.0
16/09:30am 30.5 31.1 18.6 49 7.7 NNE 13 22 7 12 1013.2 - 0.0
16/09:00am 29.5 29.4 19.5 55 6.6 NNE 19 26 10 14 1013.3 1012.0 0.0
16/08:30am 29.3 29.9 20.2 58 6.0 NNE 17 24 9 13 1013.5 - 0.0
16/08:00am 28.0 28.6 20.3 63 5.1 NE 17 26 9 14 1013.4 - 0.0
16/07:30am 27.1 27.4 20.4 66 4.4 NE 19 26 10 14 1013.1 - 0.0
16/07:00am 26.4 26.7 20.5 70 3.9 NE 19 24 10 13 1013.0 - 0.0
16/06:30am 26.5 27.9 21.0 72 3.7 NE 15 20 8 11 1012.7 - 0.0
16/06:00am 25.7 27.7 20.7 74 3.3 NE 11 17 6 9 1012.2 1010.8 0.0
16/05:30am 25.2 26.8 20.7 76 3.0 NE 13 19 7 10 1011.9 - 0.0
16/05:00am 25.2 26.9 20.9 77 2.8 NE 13 22 7 12 1011.4 - 0.0
16/04:30am 25.2 26.5 20.9 77 2.8 NE 15 24 8 13 1010.8 - 0.0
16/04:00am 25.2 26.5 20.9 77 2.8 ENE 15 20 8 11 1010.5 - 0.0
16/03:30am 25.3 26.3 20.3 74 3.3 ENE 15 24 8 13 1010.3 - 0.0
16/03:00am 25.5 25.8 19.6 70 3.8 ENE 17 22 9 12 1010.0 1008.7 0.0
16/02:30am 25.7 27.2 19.8 70 3.8 ENE 11 13 6 7 1009.5 - 0.0
16/02:00am 26.2 27.9 20.1 69 4.0 NE 11 17 6 9 1009.6 - 0.0
16/01:30am 26.7 27.3 20.3 68 4.2 NNE 17 22 9 12 1009.3 - 0.0
16/01:00am 27.5 27.3 19.8 63 5.1 N 20 28 11 15 1009.5 - 0.0
16/12:30am 27.9 28.9 20.2 63 5.1 N 15 24 8 13 1009.6 - 0.0
16/12:00am 28.3 28.5 20.1 61 5.4 NNE 19 30 10 16 1009.7 1008.4 0.0
 
Date/Time
EST
Temp
°C
App
Temp
°C
Dew
Point
°C
Rel
Hum
%
Delta-T
°C
Wind Press
QNH
hPa
Press
MSL
hPa
Rain since
9am
mm
Dir  Spd
km/h
Gust
km/h
Spd
kts
Gust
kts
15/11:30pm 29.0 27.5 20.2 59 5.8 N 28 37 15 20 1009.5 - 0.0
15/11:00pm 29.5 28.2 19.8 56 6.4 N 26 35 14 19 1009.5 - 0.0
15/10:43pm 29.9 27.5 19.9 55 6.6 N 32 50 17 27 1009.7 - 0.0
15/10:30pm 30.2 27.1 17.6 46 8.1 NNE 30 41 16 22 1009.8 - 0.0
15/10:28pm 30.4 27.1 16.0 41 9.0 NNE 28 41 15 22 1009.8 - 0.0
15/10:00pm 27.2 25.9 7.6 29 10.6 NNW 4 11 2 6 1009.1 - 0.0
15/09:30pm 27.3 25.5 7.2 28 10.8 NW 6 7 3 4 1008.7 - 0.0
15/09:00pm 28.3 26.3 6.4 25 11.7 WNW 6 7 3 4 1008.7 1007.4 0.0
15/08:30pm 28.9 26.9 4.4 21 12.6 WNW 4 7 2 4 1008.5 - 0.0
15/08:00pm 30.6 29.4 4.4 19 13.7 CALM 0 0 0 0 - - 0.0
15/07:30pm 32.1 29.9 1.3 14 15.4 W 2 6 1 3 1007.6 - 0.0
15/07:00pm 34.9 31.8 1.3 12 17.1 S 7 9 4 5 1007.3 - 0.0
15/06:30pm 36.4 31.9 -0.1 10 18.3 S 13 17 7 9 1006.8 - 0.0
15/06:00pm 37.1 31.4 -1.0 9 19.0 SSW 19 28 10 15 1006.6 1005.2 0.0
15/05:30pm 37.5 31.4 -4.1 7 19.7 SSW 19 28 10 15 1006.3 - 0.0
15/05:00pm 38.4 32.0 -1.6 8 19.8 S 22 33 12 18 1006.1 - 0.0
15/04:30pm 37.8 31.9 -0.5 9 19.3 S 20 32 11 17 1006.4 - 0.0
15/04:00pm 38.5 32.9 1.5 10 19.3 S 20 28 11 15 1006.5 - 0.0
15/03:30pm 38.2 33.4 2.6 11 18.8 SSW 17 28 9 15 1007.0 - 0.0
15/03:00pm 37.0 32.1 4.0 13 17.8 S 19 28 10 15 1007.5 1006.1 0.0
15/02:30pm 37.5 33.0 4.4 13 17.9 SSE 17 24 9 13 1008.1 - 0.0
15/02:00pm 35.7 31.7 5.1 15 16.6 SSE 15 28 8 15 1008.7 - 0.0
15/01:30pm 35.7 32.0 9.3 20 15.3 SE 19 24 10 13 1009.1 - 0.0
15/01:00pm 34.9 32.8 11.3 24 14.0 S 13 19 7 10 1009.3 - 0.0
15/12:30pm 34.2 31.2 10.7 24 13.8 S 17 26 9 14 1009.4 - 0.0
15/12:00pm 33.5 30.2 10.8 25 13.3 S 19 28 10 15 1009.6 1008.3 0.0
15/11:30am 32.8 28.8 8.3 22 13.8 SSW 19 24 10 13 1009.8 - 0.0
15/11:00am 31.4 27.1 7.1 22 13.3 S 19 24 10 13 1010.2 - 0.0
15/10:30am 31.6 28.6 7.9 23 13.2 SSW 13 20 7 11 1010.2 - 0.0
15/10:00am 29.9 27.4 8.3 26 12.0 SSW 11 20 6 11 1010.2 - 0.0
15/09:30am 28.5 26.4 8.2 28 11.2 S 9 15 5 8 1010.3 - 0.0

Other Formats:

Comma delimited format used in spreadsheet applications
http://www.bom.gov.au/fwo/IDQ60801/IDQ60801.94517.axf

JavaScript Object Notation format (JSON) in row-major order
http://www.bom.gov.au/fwo/IDQ60801/IDQ60801.94517.json